Extreme weather reports worldwide

Rain

Station
 
Location
 
Name
 
Wind
Knots
Gust
Knots
Vis
SM
Temp/Dew
C
Baro
inHg
METAR
 
SNN EINN Shannon, IE Shannon Airport 30 42 1.99 6/5 29.41 EINN 050400Z 21030G42KT 3200 RA FEW012 BKN015 BKN020 06/05 Q0996 NOSIG
MKE KMKE Milwaukee, US General Mitchell International Airport 23 35 5/3 29.84 KMKE 050352Z 02023G35KT 10SM -RA FEW007 OVC012 05/03 A2984 RMK AO2 PK WND 01037/0253 LTG DSNT W AND NW SLP109 P0004 T00500033
COU KCOU Columbia, US Columbia Regional Airport 20 33 6 17/14 29.78 KCOU 050354Z AUTO 18020G33KT 6SM -TSRA FEW031 BKN065 OVC110 18/14 A2978 RMK AO2 PK WND 18033/0351 LTG DSNT N AND NE RAB38 TSB32 SLP078 P0004 T01780144
NGU KNGU Norfolk, US Norfolk Naval Station (Chambers Field) 19 32 2 11/10 30.02 KNGU 050359Z 04019G32KT 2SM RA BR OVC004 11/11 A3002 RMK AO2 PK WND 05032/0357 PRESFR SLP165 P0017 T01110106
NTU KNTU Virginia Beach, US Oceana Naval Air Station 18 31 3 12/11 29.99 KNTU 050356Z 06018G31KT 3SM -RA BR OVC004 12/12 A2999 RMK AO2 PK WND 05032/0309 VIS 2 1/2 RWY 5R SLP159 P0033 T01220117

Station
 
Location
 
Name
 
Wind
Knots
Gust
Knots
Vis
SM
Temp/Dew
C
Baro
inHg
METAR
 
WAL KWAL Wallops Island, US Wallops Flight Facility Airport 21 30 6 8/8 30.16 KWAL 050354Z AUTO 05021G30KT 6SM -RA BR OVC004 09/09 A3016 RMK AO2 PK WND 05031/0330 SLP209 P0005 T00890089
ORF KORF Norfolk, US Norfolk International Airport 20 30 2.5 11/10 30.00 KORF 050351Z 05020G30KT 2 1/2SM +RA BR OVC003 11/11 A3000 RMK AO2 PK WND 04030/0349 SLP157 P0018 T01110106
MFV KMFV Melfa, US Accomack County Airport 18 27 4 9/8 30.13 KMFV 050355Z AUTO 07018G27KT 4SM +RA OVC005 09/09 A3013 RMK AO2 P0012 T00920085
CEC KCEC Crescent City, US Jack Mc Namara Field Airport 17 27 7 8/7 29.93 KCEC 050356Z AUTO 15017G27KT 7SM RA BKN021 OVC033 09/07 A2993 RMK AO2 PK WND 15028/0332 SLP134 P0009 T00890072
KRYV Watertown, US Watertown Municipal Airport 17 26 2.5 4/4 29.87 KRYV 050355Z AUTO 03017G26KT 2 1/2SM TSRA BKN011 BKN027 OVC036 04/04 A2987 RMK AO2 LTG DSNT ALQS P0017 T00410041
JKH LGHI Chios Island, GR Chios Island National Airport 15 26 15/13 29.68 LGHI 050350Z 18015G26KT 9999 -TSRA FEW016CB SCT020 15/13 Q1005
MDW KMDW Chicago, US Chicago Midway International Airport 16 24 3 17/15 29.81 KMDW 050353Z COR 24016G24KT 200V260 3SM +TSRA BR FEW020 SCT039CB OVC050 18/15 A2981 RMK AO2 LTG DSNT N AND NE RAE02B32 SLP091 OCNL LTGICCCCG OHD TS OHD MOV NE P0029 T01780150 $
KGAO Galliano, US South Lafourche Leonard Miller Jr Airport 13 23 5 20/18 29.91 KGAO 050355Z AUTO 09013G23KT 5SM RA BKN019 BKN025 OVC031 20/18 A2991 RMK AO2 P0001 T02000180
YAM CYAM Sault Ste Marie, CA Sault Ste Marie Airport 11 23 3 4/3 29.93 CYAM 050342Z 35011G23KT 3SM +SHRA BR FEW017 SCT023TCU OVC044 04/03 A2993 RMK SC1TCU3SC4 TCU MOV MOV SE SLP145
PIA KPIA Peoria, US General Wayne A. Downing Peoria International Airport 7 23 17/12 29.78 KPIA 050354Z 35007G23KT 10SM VCTS RA SCT027 BKN043 OVC050 18/13 A2978 RMK AO2 LTG DSNT W-NE RAB49 SLP081 P0001 T01780128
SBM KSBM Sheboygan, US Sheboygan County Memorial Airport 12 22 4/1 29.90 KSBM 050353Z AUTO 36012G22KT 10SM -RA OVC012 04/02 A2990 RMK AO2 LTG DSNT SW TSB0258E13 SLP130 P0005 T00440017
PHF KPHF Newport News, US Newport News Williamsburg International Airport 12 22 4 10/10 30.07 KPHF 050354Z 03012G22KT 4SM +RA BR OVC005 11/11 A3007 RMK AO2 PK WND 04026/0316 SLP181 P0013 T01060106
UNU KUNU Juneau, US Dodge County Airport 16 21 3 3/3 29.90 KUNU 050355Z AUTO 02016G21KT 3SM +RA BKN009 OVC029 04/03 A2990 RMK AO2 LTG DSNT ALQDS P0006 T00380033
JVL KJVL Janesville, US Southern Wisconsin Regional Airport 14 21 5/5 29.87 KJVL 050355Z AUTO 01014G21KT 10SM -RA SCT013 OVC021 05/05 A2987 RMK AO2 P0001
SQI KSQI Sterling/Rockfalls, US Whiteside County Airport-Joseph H Bittorf Field 12 21 6/5 29.84 KSQI 050356Z AUTO 01012G21KT 10SM -RA BKN012 OVC020 06/06 A2984 RMK AO2 WSHFT 0302 LTG DSNT SE-SW SLP971 T00610056 PNO $
KSFY Savanna, US Tri Township Airport 11 21 6/3 29.88 KSFY 050359Z AUTO 01011G21KT 10SM -VCTSRA BKN012 OVC028 06/03 A2988 RMK AO2 LTG DSNT ALQDS
KNUI St Inigoes, US Webster Nolf Airport 11 21 9/8 30.17 KNUI 050353Z AUTO 05011G21KT 10SM -RA BKN010 OVC016 09/09 A3017 RMK AO2 SLP215 P0002 T00940089
KPVG Norfolk, US Hampton Roads Executive Airport 9 21 8 11/11 30.06 KPVG 050256Z AUTO 03009G21KT 8SM RA OVC003 12/12 A3006 RMK AO2 SLP180 P0011 60033 T01170117 58019
LYH KLYH Lynchburg, US Lynchburg Regional Preston Glenn Field 14 20 12/9 30.16 KLYH 050354Z AUTO 03014G20KT 10SM -RA BKN032 OVC044 13/09 A3016 RMK AO2 RAB18 SLP210 P0000 T01280094
WWD KWWD Wildwood, US Cape May County Airport 14 20 7/6 30.28 KWWD 050356Z AUTO 06014G20KT 10SM -RA OVC005 07/07 A3028 RMK AO2 SLP255 P0000 T00720067
MUT KMUT Muscatine, US Muscatine Municipal Airport 14 20 8 6/6 29.89 KMUT 050355Z AUTO 02014G20KT 360V060 8SM -RA BKN014 OVC026 06/06 A2989 RMK AO2
KFKS Frankfort, US Frankfort Dow Memorial Field 13 20 4/2 29.91 KFKS 050355Z AUTO 03013G20KT 10SM -RA SCT009 OVC027 04/02 A2991 RMK AO2 T00400020
OCE KOXB Ocean City, US Ocean City Municipal Airport 12 20 9/7 30.21 KOXB 050353Z AUTO 05012G20KT 10SM -RA OVC004 09/07 A3021 RMK AO2 SLP230 P0005 T00940072 TSNO $
GLR KGLR Gaylord, US Gaylord Regional Airport 9 20 2 5/2 29.89 KGLR 050353Z AUTO 01009G20KT 330V050 2SM VCTS +RA BR BKN005 BKN050 OVC070 05/03 A2989 RMK AO2 LTG DSNT NE AND S AND SW RAB0255 TSB23E45 SLP126 P0017 T00500028
CIU KCIU Sault Ste Marie, US Chippewa County International Airport 13 19 9 3/2 29.92 KCIU 050356Z AUTO 36013G19KT 9SM -RA BKN010 OVC040 03/02 A2992 RMK AO2 PK WND 01026/0303 CIG 008V012 SLP138 P0002 T00330022
IOW KIOW Iowa City, US Iowa City Municipal Airport 10 19 6/3 29.90 KIOW 050352Z AUTO 02010G19KT 10SM -RA FEW029 OVC045 06/03 A2990 RMK AO2 LTG DSNT ALQDS RAB23 SLP126 P0005 T00610033
ETB KETB West Bend, US West Bend Municipal Airport 12 18 7 4/3 29.91 KETB 050355Z AUTO 34012G18KT 7SM -RA OVC010 04/03 A2991 RMK AO2 P0001
MBL KMBL Manistee, US Manistee Co Blacker Airport 12 18 5/4 29.87 KMBL 050356Z AUTO 04012G18KT 10SM RA BKN009 OVC016 05/04 A2987 RMK AO2 LTG DSNT E AND SE SLP119 P0001 T00500044 402060028
UES KUES Waukesha, US Waukesha County Airport 11 18 3 3/3 29.89 KUES 050355Z AUTO 35011G18KT 3SM -RA OVC010 03/03 A2989 RMK AO2 P0038
KSFQ Suffolk, US Suffolk Executive Airport 10 18 4 11/11 30.02 KSFQ 050355Z AUTO 03010G18KT 4SM +RA OVC005 12/12 A3002 RMK AO2 P0030 T01180118
PTB KPTB Petersburg, US Dinwiddie County Airport 9 18 11/10 30.13 KPTB 050355Z AUTO 02009G18KT 10SM -RA OVC007 11/11 A3013 RMK AO2 P0004 T01130107
KBFA Boyne Falls, US Boyne Mountain Airport 12 17 6 5/2 29.92 KBFA 050355Z AUTO 01012G17KT 6SM VCTS RA HZ BKN025 OVC030 05/02 A2992 RMK AO2 LTG DSNT SE AND S
KNFE Fentress, US Fentress Naval Auxiliary Landing Field 10 17 4 13/12 29.99 KNFE 050356Z AUTO 04010G17KT 4SM +RA BR BKN006 OVC012 14/12 A2999 RMK AO2 PK WND 05027/0318 SLP157 P0039 T01390122 $
TVC KTVC Traverse City, US Cherry Capital Airport 9 17 4/2 29.92 KTVC 050353Z AUTO 36009G17KT 10SM -RA FEW015 FEW020 OVC024 04/02 A2992 RMK AO2 PK WND 05033/0302 LTG DSNT E AND SE SLP136 P0009 T00440022
KASJ Ahoskie, US Tri County Airport 11 15 5 11/11 30.03 KASJ 050345Z AUTO 36011G15KT 5SM +RA OVC006 12/12 A3003 RMK AO2 P0008 T01170117
FAF KFAF Fort Eustis, US Felker Army Air Field 9 15 8 11/10 30.05 KFAF 050355Z AUTO 04009G15KT 8SM -RA OVC008 12/11 A3005 RMK AO2 SLP179 P0007 T01190105 $
FKN KFKN Franklin, US Franklin Regional Airport 8 15 5 11/10 30.05 KFKN 050355Z AUTO 01008G15KT 5SM +RA OVC006 12/11 A3005 RMK AO2 T01150107
PGL KPQL Pascagoula, US Trent Lott International Airport 7 15 20/18 29.98 KPQL 050353Z AUTO 13007G15KT 10SM -RA BKN009 OVC016 20/18 A2998 RMK AO2 LTG DSNT SW CIG 007V014 SLP152 P0001 T02000183
LDM KLDM Ludington, US Mason County Airport 7 15 5/4 29.84 KLDM 050355Z AUTO 03007G15KT 10SM -RA OVC004 05/04 A2984 RMK AO2 T00540043
KCCA Clinton, US Clinton Municipal Airport 0 12 6 18/17 29.93 KCCA 050355Z AUTO 00000G12KT 6SM -TSRA OVC016 18/17 A2993 RMK AO2 LTG DSNT ALQDS P0002
ENSF 35 7/2 30.12 ENSF 050350Z AUTO 17035KT 9999 -SHRA FEW017/// SCT043/// BKN054/// 07/02 Q1020 W///S4
FBU ENFB Oslo, NO Oslo, Fornebu Airport 34 6/2 30.12 ENFB 050350Z AUTO 14034KT 9999 -RA BKN020/// 06/02 Q1020 W///S4
ENGC 31 6/1 30.12 ENGC 050350Z 17031KT 9999 -RA BKN045 06/01 Q1020 W07/S5
KIX RJBB Osaka, JP Kansai International Airport 20 8/6 29.94 RJBB 050330Z 06020KT 9999 -RA FEW005 SCT030 BKN040 08/06 Q1014 NOSIG
UBJ RJDC Ube, JP Yamaguchi Ube Airport 20 9/8 29.79 RJDC 050300Z 09020KT 9999 -SHRA FEW005 SCT008 BKN015 09/08 Q1009